createdAt,value
2022-11-29T00:02:12.048Z,32.67
2022-11-29T00:07:11.928Z,26.46
2022-11-29T00:09:41.958Z,33.24
2022-11-29T00:12:11.999Z,35.14
2022-11-29T00:14:42.556Z,32.56
2022-11-29T00:17:12.026Z,29.5
2022-11-29T00:19:42.058Z,29.58
2022-11-29T00:22:12.102Z,29.69
2022-11-29T00:24:42.392Z,28.14
2022-11-29T00:29:42.155Z,61.1
2022-11-29T00:32:12.183Z,59.42
2022-11-29T00:34:42.477Z,48.75
2022-11-29T00:39:42.237Z,35.04
2022-11-29T00:44:42.697Z,41.79
2022-11-29T00:47:12.361Z,65.42
2022-11-29T00:49:42.352Z,48.61
2022-11-29T00:52:12.359Z,37.51
2022-11-29T00:57:12.417Z,30.45
2022-11-29T00:59:42.441Z,28.61
2022-11-29T01:02:12.505Z,24.04
2022-11-29T01:04:42.745Z,29.66
2022-11-29T01:07:12.498Z,31.14
2022-11-29T01:09:42.534Z,27.16
2022-11-29T01:12:12.569Z,24.99
2022-11-29T01:14:42.923Z,28.84
2022-11-29T01:17:12.611Z,34.33
2022-11-29T01:19:47.859Z,31.61
2022-11-29T01:22:12.662Z,30.35
2022-11-29T01:24:42.987Z,29.05
2022-11-29T01:27:12.690Z,31.3
2022-11-29T01:29:42.700Z,25.18
2022-11-29T01:32:12.748Z,27.33
2022-11-29T01:34:43.130Z,29.26
2022-11-29T01:39:42.805Z,21.81
2022-11-29T01:42:12.819Z,26.01
2022-11-29T01:44:43.227Z,28.33
2022-11-29T01:49:42.897Z,32.86
2022-11-29T01:52:12.926Z,33.9
2022-11-29T01:54:43.571Z,27.75
2022-11-29T01:57:12.989Z,27.49
2022-11-29T01:59:43.016Z,26.86
2022-11-29T02:02:13.066Z,31.11
2022-11-29T02:04:43.641Z,32.28
2022-11-29T02:07:13.080Z,33.66
2022-11-29T02:09:43.103Z,28.86
2022-11-29T02:12:13.095Z,29.89
2022-11-29T02:14:43.545Z,34.37
2022-11-29T02:22:13.230Z,31.93
2022-11-29T02:24:43.638Z,31.93
2022-11-29T02:27:13.267Z,31.45
2022-11-29T02:29:43.276Z,33.57
2022-11-29T02:34:43.791Z,28.83
2022-11-29T02:37:13.328Z,32.36
2022-11-29T02:39:43.358Z,33.84
2022-11-29T02:42:13.392Z,36.68
2022-11-29T02:44:43.722Z,37.86
2022-11-29T02:47:13.430Z,34.52
2022-11-29T02:49:43.446Z,34.33
2022-11-29T02:52:13.500Z,34.61
2022-11-29T02:54:43.772Z,35.6
2022-11-29T02:57:13.542Z,29.28
2022-11-29T02:59:43.533Z,26.44
2022-11-29T03:02:13.639Z,24.33
2022-11-29T03:04:43.933Z,26.94
2022-11-29T03:07:13.618Z,32.99
2022-11-29T03:09:43.663Z,26.79
2022-11-29T03:12:13.687Z,24.11
2022-11-29T03:14:44.025Z,24.48
2022-11-29T03:17:13.721Z,37.58
2022-11-29T03:19:43.752Z,28.45
2022-11-29T03:22:13.771Z,24.23
2022-11-29T03:24:43.893Z,25.65
2022-11-29T03:27:13.811Z,25.78
2022-11-29T03:29:43.854Z,28.56
2022-11-29T03:32:13.867Z,29.9
2022-11-29T03:34:44.111Z,28
2022-11-29T03:37:13.908Z,26.83
2022-11-29T03:39:43.940Z,31.01
2022-11-29T03:44:44.266Z,37.09
2022-11-29T03:47:13.998Z,38.24
2022-11-29T03:49:44.012Z,34.4
2022-11-29T03:52:14.047Z,34.71
2022-11-29T03:54:44.402Z,26.91
2022-11-29T03:57:14.102Z,27.82
2022-11-29T03:59:44.110Z,26.07
2022-11-29T04:04:44.536Z,24.28
2022-11-29T04:07:14.354Z,25.6
2022-11-29T04:09:44.220Z,28.72
2022-11-29T04:12:14.236Z,25.93
2022-11-29T04:14:44.635Z,25.41
2022-11-29T04:17:14.302Z,29.63
2022-11-29T04:19:44.326Z,25.12
2022-11-29T04:22:14.319Z,29.49
2022-11-29T04:24:44.588Z,33.61
2022-11-29T04:27:14.389Z,34.49
2022-11-29T04:29:44.418Z,31
2022-11-29T04:32:14.461Z,37.91
2022-11-29T04:34:44.775Z,32.95
2022-11-29T04:37:14.459Z,31.08
2022-11-29T04:39:44.501Z,30.41
2022-11-29T04:42:14.510Z,26.54
2022-11-29T04:44:44.756Z,26.05
2022-11-29T04:47:14.555Z,29.07
2022-11-29T04:49:44.597Z,32.75
2022-11-29T04:52:14.626Z,26.94
2022-11-29T04:54:44.800Z,31.68
2022-11-29T04:57:14.671Z,33.94
2022-11-29T05:02:14.712Z,30.61
2022-11-29T05:07:14.735Z,29.63
2022-11-29T05:09:44.779Z,30.04
2022-11-29T05:14:45.122Z,23.9
2022-11-29T05:17:14.856Z,26.94
2022-11-29T05:19:44.866Z,24.16
2022-11-29T05:22:14.891Z,25.09
2022-11-29T05:27:14.934Z,33.94
2022-11-29T05:29:44.960Z,24.06
2022-11-29T05:32:14.967Z,68.6
2022-11-29T05:34:45.004Z,47.16
2022-11-29T05:39:45.052Z,34.75
2022-11-29T05:42:15.092Z,28.61
2022-11-29T05:44:45.234Z,27.78
2022-11-29T05:47:15.120Z,34.46
2022-11-29T05:49:45.154Z,30.92
2022-11-29T05:52:15.173Z,24.19
2022-11-29T05:57:15.208Z,27.92
2022-11-29T05:59:45.268Z,28.14
2022-11-29T06:02:15.384Z,32.49
2022-11-29T06:04:45.473Z,32.1
2022-11-29T06:07:15.394Z,26.81
2022-11-29T06:09:45.348Z,25.79
2022-11-29T06:12:20.668Z,24.73
2022-11-29T06:14:45.630Z,31.27
2022-11-29T06:19:45.442Z,24.48
2022-11-29T06:22:15.450Z,21.7
2022-11-29T06:32:15.549Z,24.33
2022-11-29T06:34:45.791Z,19.97
2022-11-29T06:37:15.586Z,21.77
2022-11-29T06:39:45.625Z,19.06
2022-11-29T06:42:15.642Z,19.65
2022-11-29T06:44:45.986Z,21.2
2022-11-29T06:47:15.696Z,25.61
2022-11-29T06:49:45.710Z,51.32
2022-11-29T06:52:15.732Z,35.89
2022-11-29T06:54:46.040Z,31.39
2022-11-29T06:59:45.816Z,21.6
2022-11-29T07:04:46.521Z,25.72
2022-11-29T07:12:15.935Z,15.92
2022-11-29T07:14:46.137Z,27.56
2022-11-29T07:17:15.962Z,23.56
2022-11-29T07:19:46.025Z,34.46
2022-11-29T07:22:16.027Z,29.72
2022-11-29T07:27:16.057Z,18.7
2022-11-29T07:29:46.101Z,17.14
2022-11-29T07:32:16.103Z,15.47
2022-11-29T07:34:46.506Z,19.8
2022-11-29T07:37:16.163Z,18.15
2022-11-29T07:39:46.206Z,18.1
2022-11-29T07:42:16.200Z,14.74
2022-11-29T07:44:46.491Z,12.43
2022-11-29T07:49:46.276Z,15.21
2022-11-29T07:54:46.636Z,21.06
2022-11-29T07:57:16.355Z,19.2
2022-11-29T08:02:16.415Z,21.24
2022-11-29T08:04:46.739Z,16.33
2022-11-29T08:07:16.507Z,12.82
2022-11-29T08:09:46.818Z,15.47
2022-11-29T08:12:16.494Z,12.72
2022-11-29T08:14:46.762Z,11.65
2022-11-29T08:17:16.532Z,10.51
2022-11-29T08:22:16.589Z,11.39
2022-11-29T08:24:47.172Z,11.83
2022-11-29T08:27:16.645Z,58.47
2022-11-29T08:29:46.664Z,38.5
2022-11-29T08:34:47.085Z,22.4
2022-11-29T08:37:16.707Z,16.08
2022-11-29T08:39:46.747Z,16.66
2022-11-29T08:42:16.777Z,11.48
2022-11-29T08:44:47.102Z,10.94
2022-11-29T08:49:46.832Z,16.98
2022-11-29T08:52:16.877Z,13.72
2022-11-29T08:54:47.299Z,11.89
2022-11-29T08:57:39.150Z,11.09
2022-11-29T08:59:46.936Z,9.55
2022-11-29T09:07:17.055Z,10.34
2022-11-29T09:14:47.220Z,14.08
2022-11-29T09:17:17.100Z,14.4
2022-11-29T09:19:47.130Z,12.95
2022-11-29T09:22:17.159Z,10.05
2022-11-29T09:24:47.527Z,10.86
2022-11-29T09:27:17.192Z,10.82
2022-11-29T09:29:47.236Z,10.27
2022-11-29T09:32:17.233Z,10.57
2022-11-29T09:34:47.579Z,11.46
2022-11-29T09:39:47.307Z,17.55
2022-11-29T09:42:17.319Z,17.49
2022-11-29T09:44:47.577Z,14.41
2022-11-29T09:49:47.411Z,13.29
2022-11-29T09:52:17.423Z,10.92
2022-11-29T09:54:47.897Z,10.3
2022-11-29T09:57:17.477Z,11.48
2022-11-29T09:59:47.508Z,11.18
2022-11-29T10:02:21.460Z,9.19
2022-11-29T10:04:47.639Z,9.65
2022-11-29T10:07:17.649Z,10.91
2022-11-29T10:09:47.610Z,10.84
2022-11-29T10:12:17.621Z,11.33
2022-11-29T10:14:47.924Z,10.67
2022-11-29T10:17:17.671Z,10.59
2022-11-29T10:19:47.703Z,11.13
2022-11-29T10:24:47.964Z,10.04
2022-11-29T10:27:17.741Z,9.68
2022-11-29T10:29:47.796Z,11.54
2022-11-29T10:32:17.801Z,11.91
2022-11-29T10:34:47.989Z,16.2
2022-11-29T10:37:17.856Z,17.98
2022-11-29T10:39:47.874Z,17.56
2022-11-29T10:42:17.914Z,18.39
2022-11-29T10:44:47.995Z,16.61
2022-11-29T10:47:17.951Z,14.35
2022-11-29T10:49:47.957Z,11.4
2022-11-29T10:52:18.048Z,8.91
2022-11-29T10:54:48.375Z,13.37
2022-11-29T10:57:18.024Z,12.62
2022-11-29T10:59:48.064Z,18.53
2022-11-29T11:02:18.126Z,16.91
2022-11-29T11:04:48.584Z,19.04
2022-11-29T11:09:48.154Z,15.23
2022-11-29T11:12:18.185Z,15.85
2022-11-29T11:14:48.367Z,15.07
2022-11-29T11:17:18.216Z,21.71
2022-11-29T11:19:48.253Z,19.64
2022-11-29T11:22:18.280Z,20.29
2022-11-29T11:24:48.303Z,21.95
2022-11-29T11:27:18.294Z,19.28
2022-11-29T11:29:48.340Z,17.23
2022-11-29T11:32:18.349Z,17.09
2022-11-29T11:37:18.415Z,12.27
2022-11-29T11:39:48.471Z,12.66
2022-11-29T11:42:18.478Z,13.86
2022-11-29T11:44:48.831Z,15.34
2022-11-29T11:49:48.522Z,13.91
2022-11-29T11:52:18.563Z,15.6
2022-11-29T11:54:48.572Z,18.33
2022-11-29T11:57:18.606Z,19.56
2022-11-29T11:59:48.630Z,15.72
2022-11-29T12:02:18.675Z,15.01
2022-11-29T12:04:48.669Z,14.19
2022-11-29T12:07:18.834Z,13.89
2022-11-29T12:09:48.721Z,13.7
2022-11-29T12:12:18.741Z,12.02
2022-11-29T12:17:20.339Z,11.4
2022-11-29T12:19:48.849Z,13.82
2022-11-29T12:22:18.825Z,12.42
2022-11-29T12:24:48.856Z,13.25
2022-11-29T12:29:48.898Z,14.99
2022-11-29T12:32:18.910Z,12.33
2022-11-29T12:39:48.996Z,14.06
2022-11-29T12:42:19.013Z,10.63
2022-11-29T12:44:49.044Z,13.67
2022-11-29T12:49:49.090Z,12.28
2022-11-29T12:52:19.113Z,11.67
2022-11-29T12:54:49.135Z,12.97
2022-11-29T12:57:19.176Z,11.63
2022-11-29T12:59:49.203Z,10.72
2022-11-29T13:04:49.348Z,9
2022-11-29T13:07:19.275Z,11.71
2022-11-29T13:09:49.293Z,11.06
2022-11-29T13:12:19.308Z,12.16
2022-11-29T13:17:19.352Z,13.78
2022-11-29T13:19:49.407Z,13.12
2022-11-29T13:22:19.392Z,12.19
2022-11-29T13:27:19.454Z,9.8
2022-11-29T13:29:49.469Z,11.71
2022-11-29T13:42:19.585Z,10.37
2022-11-29T13:44:49.600Z,8.52
2022-11-29T13:52:38.261Z,9.52
2022-11-29T13:54:49.742Z,8.59
2022-11-29T13:57:19.717Z,8.69
2022-11-29T14:02:19.775Z,9.75
2022-11-29T14:04:49.783Z,13.07
2022-11-29T14:07:19.983Z,11.21
2022-11-29T14:09:49.840Z,12.92
2022-11-29T14:12:19.888Z,9.28
2022-11-29T14:14:49.907Z,9.36
2022-11-29T14:17:19.902Z,12.27
2022-11-29T14:19:49.925Z,10.44
2022-11-29T14:22:19.966Z,10.83
2022-11-29T14:24:49.984Z,9.2
2022-11-29T14:27:20.000Z,12.12
2022-11-29T14:29:50.082Z,13.34
2022-11-29T14:32:20.050Z,17.53
2022-11-29T14:37:20.107Z,10.59
2022-11-29T14:39:50.146Z,11.91
2022-11-29T14:54:54.062Z,9.85
2022-11-29T14:57:20.288Z,12.21
2022-11-29T14:59:50.310Z,12.91
2022-11-29T15:02:20.480Z,13.51
2022-11-29T15:04:50.372Z,13.05
2022-11-29T15:07:20.455Z,13.17
2022-11-29T15:09:50.429Z,12.28
2022-11-29T15:12:20.434Z,12.03
2022-11-29T15:17:20.482Z,9.79
2022-11-29T15:19:50.495Z,12.61
2022-11-29T15:22:20.531Z,12.46
2022-11-29T15:24:50.573Z,11.12
2022-11-29T15:27:20.590Z,13.53
2022-11-29T15:29:50.590Z,12.28
2022-11-29T15:32:20.635Z,16.69
2022-11-29T15:37:20.684Z,13.31
2022-11-29T15:39:50.703Z,13.62
2022-11-29T15:42:20.704Z,10.21
2022-11-29T15:44:50.744Z,15.39
2022-11-29T15:47:20.772Z,11.92
2022-11-29T15:49:50.795Z,10.75
2022-11-29T15:54:50.815Z,14.97
2022-11-29T15:57:20.852Z,14.69
2022-11-29T15:59:50.904Z,18.06
2022-11-29T16:04:51.202Z,14.47
2022-11-29T16:07:21.001Z,13.17
2022-11-29T16:09:50.973Z,16.57
2022-11-29T16:17:21.049Z,14.77
2022-11-29T16:19:51.054Z,18.07
2022-11-29T16:22:21.094Z,15.49
2022-11-29T16:24:51.152Z,14.47
2022-11-29T16:27:21.114Z,15.91
2022-11-29T16:32:21.178Z,13.29
2022-11-29T16:34:51.188Z,13.92
2022-11-29T16:37:21.216Z,13.48
2022-11-29T16:39:51.256Z,13.24
2022-11-29T16:42:25.244Z,14.22
2022-11-29T16:44:51.276Z,18.05
2022-11-29T16:47:21.302Z,16.06
2022-11-29T16:49:51.346Z,17.56
2022-11-29T16:52:21.374Z,16.91
2022-11-29T16:54:51.369Z,16.87
2022-11-29T16:57:21.421Z,19.95
2022-11-29T16:59:51.446Z,19.82
2022-11-29T17:04:51.476Z,16.62
2022-11-29T17:07:21.574Z,18.02
2022-11-29T17:09:51.528Z,15.09
2022-11-29T17:12:21.553Z,12.46
2022-11-29T17:14:51.574Z,12.3
2022-11-29T17:19:51.612Z,13.09
2022-11-29T17:22:21.663Z,14.47
2022-11-29T17:24:51.963Z,15.61
2022-11-29T17:27:21.682Z,19.34
2022-11-29T17:34:51.786Z,18.09
2022-11-29T17:42:21.834Z,17.46
2022-11-29T17:47:21.878Z,19.67
2022-11-29T17:49:51.899Z,17.42
2022-11-29T17:52:21.959Z,16.26
2022-11-29T17:54:51.961Z,22.72
2022-11-29T17:59:52.008Z,18.91
2022-11-29T18:02:22.103Z,18.15
2022-11-29T18:04:52.045Z,15.65
2022-11-29T18:07:22.143Z,14.2
2022-11-29T18:09:52.093Z,12.94
2022-11-29T18:12:22.118Z,19.51
2022-11-29T18:17:22.157Z,16.62
2022-11-29T18:19:52.183Z,16.77
2022-11-29T18:22:22.195Z,17.07
2022-11-29T18:24:57.708Z,13.02
2022-11-29T18:32:22.312Z,17.96
2022-11-29T18:37:46.137Z,19.97
2022-11-29T18:39:52.375Z,16.16
2022-11-29T18:42:22.412Z,14.81
2022-11-29T18:49:52.480Z,21.19
2022-11-29T18:54:52.512Z,17.74
2022-11-29T18:59:52.576Z,14.76
2022-11-29T19:02:22.593Z,15.99
2022-11-29T19:04:52.613Z,15.18
2022-11-29T19:07:22.716Z,17.91
2022-11-29T19:12:22.696Z,19.61
2022-11-29T19:14:53.114Z,19.13
2022-11-29T19:19:52.750Z,20.42
2022-11-29T19:22:22.849Z,16.65
2022-11-29T19:24:52.796Z,15.54
2022-11-29T19:27:22.829Z,20
2022-11-29T19:32:22.863Z,17.81
2022-11-29T19:34:52.883Z,16.29
2022-11-29T19:37:22.899Z,16.49
2022-11-29T19:42:22.966Z,19.45
2022-11-29T19:45:15.954Z,16.91
2022-11-29T19:47:23.012Z,19.22
2022-11-29T19:49:55.807Z,17.7
2022-11-29T19:54:53.073Z,18.59
2022-11-29T19:57:23.091Z,17.54
2022-11-29T19:59:53.132Z,17.14
2022-11-29T20:04:53.180Z,16.1
2022-11-29T20:12:23.250Z,11.82
2022-11-29T20:14:53.283Z,11.11
2022-11-29T20:17:23.304Z,11.08
2022-11-29T20:19:53.406Z,9.48
2022-11-29T20:22:23.354Z,9.54
2022-11-29T20:24:53.375Z,10.91
2022-11-29T20:27:23.378Z,11.54
2022-11-29T20:32:23.429Z,10.11
2022-11-29T20:34:53.624Z,12.15
2022-11-29T20:42:23.534Z,12.61
2022-11-29T20:44:53.555Z,12.06
2022-11-29T20:47:23.559Z,11.7
2022-11-29T20:49:53.610Z,11.89
2022-11-29T20:52:23.617Z,14.08
2022-11-29T20:54:53.690Z,13.53
2022-11-29T20:59:53.694Z,13.09
2022-11-29T21:02:23.715Z,11.81
2022-11-29T21:04:53.752Z,11.1
2022-11-29T21:07:23.788Z,10.9
2022-11-29T21:12:23.822Z,11.99
2022-11-29T21:14:53.848Z,10.32
2022-11-29T21:17:27.542Z,10.04
2022-11-29T21:22:23.905Z,13.2
2022-11-29T21:24:53.975Z,13.8
2022-11-29T21:27:23.959Z,13.43
2022-11-29T21:29:53.974Z,13.31
2022-11-29T21:32:23.997Z,12.28
2022-11-29T21:34:54.060Z,15.65
2022-11-29T21:39:54.071Z,12.99
2022-11-29T21:42:24.106Z,12.48
2022-11-29T21:44:54.130Z,15.36
2022-11-29T21:47:24.167Z,17.4
2022-11-29T21:54:54.219Z,13.91
2022-11-29T21:57:24.237Z,12.15
2022-11-29T22:04:54.319Z,12.82
2022-11-29T22:09:54.350Z,16.52
2022-11-29T22:12:34.144Z,14.11
2022-11-29T22:17:24.412Z,15.05
2022-11-29T22:19:54.451Z,13.72
2022-11-29T22:22:27.922Z,13.66
2022-11-29T22:24:54.484Z,12.44
2022-11-29T22:29:54.553Z,13.22
2022-11-29T22:32:24.576Z,13.21
2022-11-29T22:34:54.584Z,11.82
2022-11-29T22:37:24.623Z,10.92
2022-11-29T22:42:24.646Z,11.62
2022-11-29T22:44:54.681Z,14.29
2022-11-29T22:47:24.717Z,13.39
2022-11-29T22:49:54.726Z,13.45
2022-11-29T22:54:56.752Z,11.84
2022-11-29T22:59:54.839Z,12.86
2022-11-29T23:02:24.901Z,12.75
2022-11-29T23:04:54.864Z,14.33
2022-11-29T23:07:24.903Z,13.35
2022-11-29T23:09:54.929Z,13.33
2022-11-29T23:12:24.944Z,12.47
2022-11-29T23:14:56.484Z,14.8
2022-11-29T23:17:24.997Z,15.08
2022-11-29T23:22:25.102Z,12.93
2022-11-29T23:24:55.055Z,14.55
2022-11-29T23:27:25.068Z,14.25
2022-11-29T23:29:55.102Z,13.66
2022-11-29T23:32:25.158Z,13.71
2022-11-29T23:37:25.179Z,13.72
2022-11-29T23:42:25.227Z,13.73
2022-11-29T23:44:55.238Z,14.45
2022-11-29T23:47:25.263Z,15.13
2022-11-29T23:54:55.341Z,14.55
2022-11-29T23:57:25.351Z,18.06
